createdAt,value
2018-10-12T00:00:20.562Z,1008.68
2018-10-12T00:00:46.695Z,1008.69
2018-10-12T00:01:12.830Z,1008.68
2018-10-12T00:01:38.967Z,1008.71
2018-10-12T00:02:05.092Z,1008.69
2018-10-12T00:02:31.267Z,1008.71
2018-10-12T00:02:57.429Z,1008.7
2018-10-12T00:03:23.566Z,1008.69
2018-10-12T00:03:49.698Z,1008.68
2018-10-12T00:04:15.832Z,1008.73
2018-10-12T00:04:41.963Z,1008.74
2018-10-12T00:05:08.089Z,1008.74
2018-10-12T00:05:34.223Z,1008.73
2018-10-12T00:06:00.359Z,1008.74
2018-10-12T00:06:26.492Z,1008.72
2018-10-12T00:06:52.622Z,1008.73
2018-10-12T00:07:18.782Z,1008.73
2018-10-12T00:07:44.935Z,1008.74
2018-10-12T00:08:11.075Z,1008.74
2018-10-12T00:08:37.209Z,1008.76
2018-10-12T00:09:03.361Z,1008.76
2018-10-12T00:09:29.498Z,1008.75
2018-10-12T00:09:55.664Z,1008.73
2018-10-12T00:10:21.794Z,1008.73
2018-10-12T00:10:47.948Z,1008.76
2018-10-12T00:11:14.117Z,1008.74
2018-10-12T00:11:40.255Z,1008.74
2018-10-12T00:12:06.394Z,1008.78
2018-10-12T00:12:32.526Z,1008.77
2018-10-12T00:12:58.658Z,1008.75
2018-10-12T00:13:24.797Z,1008.72
2018-10-12T00:13:50.937Z,1008.76
2018-10-12T00:14:17.076Z,1008.76
2018-10-12T00:14:43.208Z,1008.78
2018-10-12T00:15:09.372Z,1008.74
2018-10-12T00:15:35.503Z,1008.73
2018-10-12T00:16:01.665Z,1008.71
2018-10-12T00:16:27.796Z,1008.74
2018-10-12T00:16:53.932Z,1008.77
2018-10-12T00:17:20.139Z,1008.72
2018-10-12T00:17:46.298Z,1008.74
2018-10-12T00:18:12.438Z,1008.76
2018-10-12T00:18:38.577Z,1008.76
2018-10-12T00:19:04.714Z,1008.75
2018-10-12T00:19:30.853Z,1008.76
2018-10-12T00:19:56.989Z,1008.73
2018-10-12T00:20:23.152Z,1008.73
2018-10-12T00:20:49.283Z,1008.72
2018-10-12T00:21:15.423Z,1008.79
2018-10-12T00:21:41.560Z,1008.76
2018-10-12T00:22:07.728Z,1008.75
2018-10-12T00:22:33.850Z,1008.76
2018-10-12T00:22:59.988Z,1008.78
2018-10-12T00:23:26.125Z,1008.76
2018-10-12T00:23:52.255Z,1008.75
2018-10-12T00:24:18.427Z,1008.76
2018-10-12T00:24:44.564Z,1008.74
2018-10-12T00:25:10.691Z,1008.73
2018-10-12T00:25:36.824Z,1008.72
2018-10-12T00:26:02.994Z,1008.74
2018-10-12T00:26:29.146Z,1008.77
2018-10-12T00:26:55.312Z,1008.78
2018-10-12T00:27:21.472Z,1008.79
2018-10-12T00:27:47.606Z,1008.78
2018-10-12T00:28:13.765Z,1008.77
2018-10-12T00:28:39.899Z,1008.78
2018-10-12T00:29:06.040Z,1008.75
2018-10-12T00:29:32.186Z,1008.76
2018-10-12T00:29:58.322Z,1008.79
2018-10-12T00:30:24.472Z,1008.75
2018-10-12T00:30:50.609Z,1008.77
2018-10-12T00:31:16.771Z,1008.79
2018-10-12T00:31:42.900Z,1008.79
2018-10-12T00:32:09.064Z,1008.77
2018-10-12T00:32:35.213Z,1008.78
2018-10-12T00:33:01.351Z,1008.79
2018-10-12T00:33:27.481Z,1008.75
2018-10-12T00:33:53.609Z,1008.78
2018-10-12T00:34:19.746Z,1008.8
2018-10-12T00:34:45.879Z,1008.79
2018-10-12T00:35:12.041Z,1008.8
2018-10-12T00:35:38.170Z,1008.82
2018-10-12T00:36:04.330Z,1008.84
2018-10-12T00:36:30.489Z,1008.79
2018-10-12T00:36:56.624Z,1008.83
2018-10-12T00:37:22.808Z,1008.85
2018-10-12T00:37:48.945Z,1008.81
2018-10-12T00:38:15.077Z,1008.84
2018-10-12T00:38:41.235Z,1008.86
2018-10-12T00:39:07.366Z,1008.86
2018-10-12T00:39:33.502Z,1008.87
2018-10-12T00:39:59.666Z,1008.84
2018-10-12T00:40:25.793Z,1008.85
2018-10-12T00:40:51.931Z,1008.79
2018-10-12T00:41:18.062Z,1008.83
2018-10-12T00:41:44.199Z,1008.9
2018-10-12T00:42:10.355Z,1008.86
2018-10-12T00:42:36.497Z,1008.84
2018-10-12T00:43:02.631Z,1008.9
2018-10-12T00:43:28.763Z,1008.83
2018-10-12T00:43:54.897Z,1008.86
2018-10-12T00:44:21.058Z,1008.86
2018-10-12T00:44:47.228Z,1008.83
2018-10-12T00:45:13.356Z,1008.79
2018-10-12T00:45:39.490Z,1008.84
2018-10-12T00:46:05.624Z,1008.85
2018-10-12T00:46:31.759Z,1008.81
2018-10-12T00:46:57.892Z,1008.85
2018-10-12T00:47:24.029Z,1008.81
2018-10-12T00:47:50.155Z,1008.8
2018-10-12T00:48:16.289Z,1008.78
2018-10-12T00:48:42.422Z,1008.8
2018-10-12T00:49:08.551Z,1008.83
2018-10-12T00:49:34.718Z,1008.85
2018-10-12T00:50:00.869Z,1008.83
2018-10-12T00:50:27.003Z,1008.85
2018-10-12T00:50:53.144Z,1008.82
2018-10-12T00:51:19.276Z,1008.8
2018-10-12T00:51:45.414Z,1008.82
2018-10-12T00:52:11.547Z,1008.8
2018-10-12T00:52:37.681Z,1008.8
2018-10-12T00:53:03.858Z,1008.78
2018-10-12T00:53:30.019Z,1008.77
2018-10-12T00:53:56.157Z,1008.78
2018-10-12T00:54:22.347Z,1008.8
2018-10-12T00:54:48.499Z,1008.78
2018-10-12T00:55:14.633Z,1008.74
2018-10-12T00:55:40.768Z,1008.76
2018-10-12T00:56:06.903Z,1008.75
2018-10-12T00:56:33.040Z,1008.78
2018-10-12T00:56:59.223Z,1008.78
2018-10-12T00:57:25.358Z,1008.79
2018-10-12T00:57:51.512Z,1008.77
2018-10-12T00:58:17.670Z,1008.76
2018-10-12T00:58:43.803Z,1008.78
2018-10-12T00:59:09.949Z,1008.79
2018-10-12T00:59:36.099Z,1008.77
2018-10-12T01:00:02.261Z,1008.81
2018-10-12T01:00:28.421Z,1008.82
2018-10-12T01:00:54.576Z,1008.81
2018-10-12T01:01:20.710Z,1008.86
2018-10-12T01:01:46.844Z,1008.83
2018-10-12T01:02:12.976Z,1008.82
2018-10-12T01:02:39.111Z,1008.85
2018-10-12T01:03:05.245Z,1008.86
2018-10-12T01:03:31.403Z,1008.85
2018-10-12T01:03:57.533Z,1008.85
2018-10-12T01:04:23.701Z,1008.83
2018-10-12T01:04:49.827Z,1008.86
2018-10-12T01:05:15.965Z,1008.88
2018-10-12T01:05:42.117Z,1008.88
2018-10-12T01:06:08.252Z,1008.87
2018-10-12T01:06:34.396Z,1008.87
2018-10-12T01:07:00.536Z,1008.86
2018-10-12T01:07:26.694Z,1008.88
2018-10-12T01:07:52.831Z,1008.92
2018-10-12T01:08:18.982Z,1008.91
2018-10-12T01:08:45.128Z,1008.96
2018-10-12T01:09:11.257Z,1008.93
2018-10-12T01:09:37.403Z,1008.9
2018-10-12T01:10:03.575Z,1008.9
2018-10-12T01:10:29.740Z,1008.93
2018-10-12T01:10:55.901Z,1008.89
2018-10-12T01:11:22.034Z,1008.94
2018-10-12T01:11:48.184Z,1008.91
2018-10-12T01:12:14.352Z,1008.88
2018-10-12T01:12:40.453Z,1008.87
2018-10-12T01:13:06.607Z,1008.88
2018-10-12T01:13:32.734Z,1008.84
2018-10-12T01:13:58.875Z,1008.86
2018-10-12T01:14:25.036Z,1008.83
2018-10-12T01:14:51.168Z,1008.82
2018-10-12T01:15:17.304Z,1008.82
2018-10-12T01:15:43.436Z,1008.8
2018-10-12T01:16:09.576Z,1008.79
2018-10-12T01:16:35.756Z,1008.79
2018-10-12T01:17:01.903Z,1008.79
2018-10-12T01:17:28.041Z,1008.74
2018-10-12T01:17:54.196Z,1008.76
2018-10-12T01:18:20.335Z,1008.72
2018-10-12T01:18:46.477Z,1008.67
2018-10-12T01:19:12.610Z,1008.66
2018-10-12T01:19:38.773Z,1008.66
2018-10-12T01:20:04.907Z,1008.64
2018-10-12T01:20:31.043Z,1008.58
2018-10-12T01:20:57.176Z,1008.63
2018-10-12T01:21:23.311Z,1008.57
2018-10-12T01:21:49.440Z,1008.59
2018-10-12T01:22:15.573Z,1008.58
2018-10-12T01:22:41.714Z,1008.6
2018-10-12T01:23:07.838Z,1008.61
2018-10-12T01:23:34.005Z,1008.64
2018-10-12T01:24:00.142Z,1008.61
2018-10-12T01:24:26.284Z,1008.65
2018-10-12T01:24:52.410Z,1008.67
2018-10-12T01:25:18.565Z,1008.66
2018-10-12T01:25:44.702Z,1008.63
2018-10-12T01:26:10.838Z,1008.67
2018-10-12T01:26:36.991Z,1008.66
2018-10-12T01:27:03.153Z,1008.66
2018-10-12T01:27:29.307Z,1008.67
2018-10-12T01:27:55.445Z,1008.68
2018-10-12T01:28:21.579Z,1008.68
2018-10-12T01:28:47.717Z,1008.67
2018-10-12T01:29:13.855Z,1008.69
2018-10-12T01:29:40.035Z,1008.73
2018-10-12T01:30:06.165Z,1008.75
2018-10-12T01:30:32.301Z,1008.75
2018-10-12T01:30:58.433Z,1008.75
2018-10-12T01:31:24.597Z,1008.74
2018-10-12T01:31:50.729Z,1008.78
2018-10-12T01:32:16.892Z,1008.75
2018-10-12T01:32:43.033Z,1008.75
2018-10-12T01:33:09.163Z,1008.74
2018-10-12T01:33:35.301Z,1008.72
2018-10-12T01:34:01.433Z,1008.75
2018-10-12T01:34:27.567Z,1008.71
2018-10-12T01:34:53.705Z,1008.71
2018-10-12T01:35:19.846Z,1008.73
2018-10-12T01:35:45.969Z,1008.72
2018-10-12T01:36:12.111Z,1008.73
2018-10-12T01:36:38.229Z,1008.74
2018-10-12T01:37:04.364Z,1008.78
2018-10-12T01:37:30.496Z,1008.74
2018-10-12T01:37:56.637Z,1008.74
2018-10-12T01:38:22.772Z,1008.75
2018-10-12T01:38:48.910Z,1008.78
2018-10-12T01:39:15.082Z,1008.75
2018-10-12T01:39:41.245Z,1008.75
2018-10-12T01:40:07.377Z,1008.73
2018-10-12T01:40:33.550Z,1008.77
2018-10-12T01:40:59.689Z,1008.73
2018-10-12T01:41:25.821Z,1008.76
2018-10-12T01:41:52.096Z,1008.78
2018-10-12T01:42:18.120Z,1008.8
2018-10-12T01:42:44.255Z,1008.76
2018-10-12T01:43:10.392Z,1008.77
2018-10-12T01:43:36.514Z,1008.8
2018-10-12T01:44:02.651Z,1008.81
2018-10-12T01:44:28.788Z,1008.82
2018-10-12T01:44:54.947Z,1008.83
2018-10-12T01:45:21.082Z,1008.84
2018-10-12T01:45:47.217Z,1008.87
2018-10-12T01:46:13.355Z,1008.89
2018-10-12T01:46:39.517Z,1008.91
2018-10-12T01:47:05.650Z,1008.93
2018-10-12T01:47:31.779Z,1008.93
2018-10-12T01:47:57.911Z,1008.95
2018-10-12T01:48:24.048Z,1008.93
2018-10-12T01:48:50.180Z,1008.94
2018-10-12T01:49:16.345Z,1008.93
2018-10-12T01:49:42.476Z,1008.96
2018-10-12T01:50:08.605Z,1008.94
2018-10-12T01:50:34.741Z,1008.97
2018-10-12T01:51:00.869Z,1008.94
2018-10-12T01:51:27.028Z,1008.97
2018-10-12T01:51:53.160Z,1008.95
2018-10-12T01:52:19.304Z,1008.93
2018-10-12T01:52:45.459Z,1008.95
2018-10-12T01:53:11.597Z,1008.93
2018-10-12T01:53:37.733Z,1008.95
2018-10-12T01:54:03.866Z,1008.96
2018-10-12T01:54:30.018Z,1008.97
2018-10-12T01:54:56.148Z,1008.96
2018-10-12T01:55:22.290Z,1008.96
2018-10-12T01:55:48.456Z,1009
2018-10-12T01:56:14.588Z,1008.99
2018-10-12T01:56:40.719Z,1008.98
2018-10-12T01:57:06.842Z,1008.94
2018-10-12T01:57:32.979Z,1008.98
2018-10-12T01:57:59.117Z,1008.96
2018-10-12T01:58:25.251Z,1008.94
2018-10-12T01:58:51.408Z,1008.96
2018-10-12T01:59:17.537Z,1008.9
2018-10-12T01:59:43.666Z,1008.95
2018-10-12T02:00:09.796Z,1008.92
2018-10-12T02:00:35.929Z,1008.96
2018-10-12T02:01:02.066Z,1008.94
2018-10-12T02:01:28.225Z,1008.92
2018-10-12T02:01:54.359Z,1008.92
2018-10-12T02:02:20.497Z,1008.91
2018-10-12T02:02:46.630Z,1008.9
2018-10-12T02:03:12.759Z,1008.9
2018-10-12T02:03:38.903Z,1008.92
2018-10-12T02:04:05.028Z,1008.96
2018-10-12T02:04:31.164Z,1008.95
2018-10-12T02:04:57.297Z,1008.95
2018-10-12T02:05:23.432Z,1008.96
2018-10-12T02:05:49.566Z,1008.97
2018-10-12T02:06:15.693Z,1008.99
2018-10-12T02:06:41.828Z,1009.06
2018-10-12T02:07:07.961Z,1009.01
2018-10-12T02:07:34.100Z,1009.02
2018-10-12T02:08:00.259Z,1008.98
2018-10-12T02:08:26.395Z,1009.01
2018-10-12T02:08:52.528Z,1009.04
2018-10-12T02:09:18.664Z,1009.06
2018-10-12T02:09:44.797Z,1009.07
2018-10-12T02:10:11.106Z,1009.04
2018-10-12T02:10:37.093Z,1009.06
2018-10-12T02:11:03.220Z,1009.05
2018-10-12T02:11:29.350Z,1009.06
2018-10-12T02:11:55.502Z,1009
2018-10-12T02:12:21.645Z,1009.04
2018-10-12T02:12:47.776Z,1008.98
2018-10-12T02:13:13.913Z,1009.01
2018-10-12T02:13:40.041Z,1009.03
2018-10-12T02:14:06.220Z,1009.01
2018-10-12T02:14:32.356Z,1009
2018-10-12T02:14:58.481Z,1008.99
2018-10-12T02:15:24.615Z,1008.98
2018-10-12T02:15:50.751Z,1009.03
2018-10-12T02:16:16.887Z,1009
2018-10-12T02:16:43.044Z,1008.99
2018-10-12T02:17:09.207Z,1009.02
2018-10-12T02:17:35.341Z,1009.02
2018-10-12T02:18:01.472Z,1009.04
2018-10-12T02:18:27.606Z,1009.04
2018-10-12T02:18:53.739Z,1009
2018-10-12T02:19:19.871Z,1009.01
2018-10-12T02:19:46.011Z,1009.03
2018-10-12T02:20:12.147Z,1008.97
2018-10-12T02:20:38.286Z,1009.06
2018-10-12T02:21:04.412Z,1009
2018-10-12T02:21:30.549Z,1009.03
2018-10-12T02:21:56.701Z,1009
2018-10-12T02:22:22.829Z,1009
2018-10-12T02:22:48.995Z,1009.02
2018-10-12T02:23:15.138Z,1009.01
2018-10-12T02:23:41.306Z,1009.03
2018-10-12T02:24:07.452Z,1008.97
2018-10-12T02:24:33.609Z,1008.98
2018-10-12T02:24:59.788Z,1008.99
2018-10-12T02:25:25.922Z,1009.01
2018-10-12T02:25:52.075Z,1009
2018-10-12T02:26:18.258Z,1009.05
2018-10-12T02:26:44.389Z,1009.04
2018-10-12T02:27:10.527Z,1009.02
2018-10-12T02:27:36.662Z,1009.01
2018-10-12T02:28:02.820Z,1009.03
2018-10-12T02:28:28.947Z,1008.98
2018-10-12T02:28:55.086Z,1008.97
2018-10-12T02:29:21.225Z,1008.99
2018-10-12T02:29:47.356Z,1008.94
2018-10-12T02:30:13.518Z,1008.94
2018-10-12T02:30:39.670Z,1008.97
2018-10-12T02:31:05.807Z,1008.97
2018-10-12T02:31:31.937Z,1009.03
2018-10-12T02:31:58.084Z,1008.98
2018-10-12T02:32:24.234Z,1009
2018-10-12T02:32:50.397Z,1009
2018-10-12T02:33:16.531Z,1008.98
2018-10-12T02:33:42.670Z,1008.97
2018-10-12T02:34:08.845Z,1008.98
2018-10-12T02:34:34.983Z,1009
2018-10-12T02:35:01.195Z,1009.01
2018-10-12T02:35:27.332Z,1009.01
2018-10-12T02:35:53.467Z,1009.01
2018-10-12T02:36:19.629Z,1009
2018-10-12T02:36:45.804Z,1008.97
2018-10-12T02:37:11.960Z,1009.01
2018-10-12T02:37:38.116Z,1008.98
2018-10-12T02:38:04.263Z,1008.95
2018-10-12T02:38:30.430Z,1008.96
2018-10-12T02:38:56.564Z,1008.97
2018-10-12T02:39:22.719Z,1008.99
2018-10-12T02:39:48.849Z,1008.97
2018-10-12T02:40:14.986Z,1009.01
2018-10-12T02:40:41.119Z,1008.98
2018-10-12T02:41:07.287Z,1008.99
2018-10-12T02:41:33.430Z,1008.99
2018-10-12T02:41:59.573Z,1009.03
2018-10-12T02:42:25.712Z,1009.04
2018-10-12T02:42:51.869Z,1009.05
2018-10-12T02:43:18.006Z,1009.09
2018-10-12T02:43:44.178Z,1009.11
2018-10-12T02:44:10.335Z,1009.04
2018-10-12T02:44:36.486Z,1009
2018-10-12T02:45:02.627Z,1009.07
2018-10-12T02:45:28.754Z,1009.04
2018-10-12T02:45:54.919Z,1009.05
2018-10-12T02:46:21.072Z,1009.07
2018-10-12T02:46:47.216Z,1009.07
2018-10-12T02:47:13.346Z,1009.07
2018-10-12T02:47:39.499Z,1009.07
2018-10-12T02:48:05.645Z,1009.08
2018-10-12T02:48:31.799Z,1009.07
2018-10-12T02:48:57.931Z,1009.03
2018-10-12T02:49:24.093Z,1009.03
2018-10-12T02:49:50.248Z,1009.08
2018-10-12T02:50:16.429Z,1009.06
2018-10-12T02:50:42.589Z,1009.05
2018-10-12T02:51:08.719Z,1009.08
2018-10-12T02:51:34.850Z,1009.08
2018-10-12T02:52:00.981Z,1009.1
2018-10-12T02:52:27.162Z,1009.1
2018-10-12T02:52:53.314Z,1009.07
2018-10-12T02:53:19.448Z,1009.07
2018-10-12T02:53:45.627Z,1009.12
2018-10-12T02:54:11.785Z,1009.11
2018-10-12T02:54:37.913Z,1009.13
2018-10-12T02:55:04.046Z,1009.13
2018-10-12T02:55:30.199Z,1009.11
2018-10-12T02:55:56.341Z,1009.12
2018-10-12T02:56:22.480Z,1009.13
2018-10-12T02:56:48.634Z,1009.11
2018-10-12T02:57:14.794Z,1009.14
2018-10-12T02:57:40.951Z,1009.17
2018-10-12T02:58:07.109Z,1009.21
2018-10-12T02:58:33.237Z,1009.2
2018-10-12T02:58:59.377Z,1009.15
2018-10-12T02:59:25.538Z,1009.17
2018-10-12T02:59:51.689Z,1009.17
2018-10-12T03:00:17.840Z,1009.2
2018-10-12T03:00:43.971Z,1009.2
2018-10-12T03:01:10.107Z,1009.23
2018-10-12T03:01:36.246Z,1009.25
2018-10-12T03:02:02.376Z,1009.27
2018-10-12T03:02:28.505Z,1009.27
2018-10-12T03:02:54.667Z,1009.28
2018-10-12T03:03:20.806Z,1009.31
2018-10-12T03:03:46.967Z,1009.31
2018-10-12T03:04:13.105Z,1009.32
2018-10-12T03:04:39.263Z,1009.33
2018-10-12T03:05:05.413Z,1009.34
2018-10-12T03:05:31.582Z,1009.29
2018-10-12T03:05:57.713Z,1009.31
2018-10-12T03:06:23.871Z,1009.32
2018-10-12T03:06:50.019Z,1009.27
2018-10-12T03:07:16.145Z,1009.32
2018-10-12T03:07:42.308Z,1009.31
2018-10-12T03:08:08.458Z,1009.32
2018-10-12T03:08:34.584Z,1009.33
2018-10-12T03:09:00.743Z,1009.31
2018-10-12T03:09:26.897Z,1009.35
2018-10-12T03:09:53.035Z,1009.31
2018-10-12T03:10:19.219Z,1009.31
2018-10-12T03:10:45.349Z,1009.38
2018-10-12T03:11:11.497Z,1009.39
2018-10-12T03:11:37.631Z,1009.37
2018-10-12T03:12:03.815Z,1009.39
2018-10-12T03:12:29.947Z,1009.35
2018-10-12T03:12:56.108Z,1009.4
2018-10-12T03:13:22.238Z,1009.39
2018-10-12T03:13:48.374Z,1009.38
2018-10-12T03:14:14.504Z,1009.39
2018-10-12T03:14:40.638Z,1009.4
2018-10-12T03:15:06.773Z,1009.41
2018-10-12T03:15:32.944Z,1009.43
2018-10-12T03:15:59.104Z,1009.4
2018-10-12T03:16:25.236Z,1009.42
2018-10-12T03:16:51.368Z,1009.43
2018-10-12T03:17:17.546Z,1009.41
2018-10-12T03:17:43.706Z,1009.42
2018-10-12T03:18:09.835Z,1009.45
2018-10-12T03:18:35.996Z,1009.42
2018-10-12T03:19:02.156Z,1009.43
2018-10-12T03:19:28.291Z,1009.48
2018-10-12T03:19:54.420Z,1009.45
2018-10-12T03:20:20.549Z,1009.45
2018-10-12T03:20:46.693Z,1009.47
2018-10-12T03:21:12.894Z,1009.46
2018-10-12T03:21:39.050Z,1009.47
2018-10-12T03:22:05.214Z,1009.49
2018-10-12T03:22:31.376Z,1009.5
2018-10-12T03:22:57.507Z,1009.5
2018-10-12T03:23:23.645Z,1009.5
2018-10-12T03:23:49.784Z,1009.48
2018-10-12T03:24:15.945Z,1009.52
2018-10-12T03:24:42.105Z,1009.49
2018-10-12T03:25:08.235Z,1009.49
2018-10-12T03:25:34.393Z,1009.49
2018-10-12T03:26:00.523Z,1009.45
2018-10-12T03:26:26.692Z,1009.51
2018-10-12T03:26:52.829Z,1009.5
2018-10-12T03:27:18.966Z,1009.52
2018-10-12T03:27:45.123Z,1009.56
2018-10-12T03:28:11.258Z,1009.54
2018-10-12T03:28:37.407Z,1009.57
2018-10-12T03:29:03.588Z,1009.55
2018-10-12T03:29:29.743Z,1009.57
2018-10-12T03:29:55.883Z,1009.59
2018-10-12T03:30:22.083Z,1009.6
2018-10-12T03:30:48.211Z,1009.58
2018-10-12T03:31:14.440Z,1009.64
2018-10-12T03:31:40.605Z,1009.61
2018-10-12T03:32:06.736Z,1009.64
2018-10-12T03:32:32.914Z,1009.64
2018-10-12T03:32:59.093Z,1009.63
2018-10-12T03:33:25.227Z,1009.64
2018-10-12T03:33:51.355Z,1009.64
2018-10-12T03:34:17.493Z,1009.66
2018-10-12T03:34:43.621Z,1009.66
2018-10-12T03:35:09.756Z,1009.65
2018-10-12T03:35:35.892Z,1009.69
2018-10-12T03:36:02.033Z,1009.7
2018-10-12T03:36:28.158Z,1009.75
2018-10-12T03:36:54.294Z,1009.75
2018-10-12T03:37:20.662Z,1009.73
2018-10-12T03:37:46.709Z,1009.75
2018-10-12T03:38:12.865Z,1009.74
2018-10-12T03:38:39.034Z,1009.74
2018-10-12T03:39:05.172Z,1009.76
2018-10-12T03:39:31.323Z,1009.77
2018-10-12T03:39:57.482Z,1009.81
2018-10-12T03:40:23.649Z,1009.79
2018-10-12T03:40:49.768Z,1009.77
2018-10-12T03:41:15.932Z,1009.8
2018-10-12T03:41:42.070Z,1009.84
2018-10-12T03:42:08.201Z,1009.8
2018-10-12T03:42:34.353Z,1009.79
2018-10-12T03:43:00.490Z,1009.76
2018-10-12T03:43:26.650Z,1009.8
2018-10-12T03:43:52.783Z,1009.78
2018-10-12T03:44:18.956Z,1009.83
2018-10-12T03:44:45.095Z,1009.79
2018-10-12T03:45:11.216Z,1009.8
2018-10-12T03:45:37.361Z,1009.82
2018-10-12T03:46:03.516Z,1009.82
2018-10-12T03:46:29.651Z,1009.81
2018-10-12T03:46:55.788Z,1009.84
2018-10-12T03:47:21.945Z,1009.82
2018-10-12T03:47:48.107Z,1009.89
2018-10-12T03:48:14.269Z,1009.88
2018-10-12T03:48:40.427Z,1009.88
2018-10-12T03:49:06.560Z,1009.84
2018-10-12T03:49:32.691Z,1009.9
2018-10-12T03:49:58.823Z,1009.89
2018-10-12T03:50:24.963Z,1009.9
2018-10-12T03:50:51.088Z,1009.9
2018-10-12T03:51:17.229Z,1009.89
2018-10-12T03:51:43.390Z,1009.89
2018-10-12T03:52:09.579Z,1009.95
2018-10-12T03:52:35.709Z,1009.93
2018-10-12T03:53:01.849Z,1009.93
2018-10-12T03:53:27.983Z,1009.93
2018-10-12T03:53:54.110Z,1009.94
2018-10-12T03:54:20.290Z,1009.99
2018-10-12T03:54:46.420Z,1009.96
2018-10-12T03:55:12.558Z,1009.97
2018-10-12T03:55:38.716Z,1009.97
2018-10-12T03:56:04.898Z,1009.97
2018-10-12T03:56:31.031Z,1009.98
2018-10-12T03:56:57.245Z,1009.95
2018-10-12T03:57:23.379Z,1009.99
2018-10-12T03:57:49.517Z,1009.99
2018-10-12T03:58:15.674Z,1009.95
2018-10-12T03:58:41.808Z,1009.95
2018-10-12T03:59:07.965Z,1009.92
2018-10-12T03:59:34.131Z,1009.93
2018-10-12T04:00:00.258Z,1009.96
2018-10-12T04:00:26.394Z,1009.95
2018-10-12T04:00:52.545Z,1009.97
2018-10-12T04:01:18.681Z,1009.94
2018-10-12T04:01:44.839Z,1009.98
2018-10-12T04:02:10.971Z,1009.98
2018-10-12T04:02:37.158Z,1009.99
2018-10-12T04:03:03.269Z,1010.02
2018-10-12T04:03:29.417Z,1009.99
2018-10-12T04:03:55.598Z,1009.99
2018-10-12T04:04:21.736Z,1010
2018-10-12T04:04:47.863Z,1010.01
2018-10-12T04:05:14.022Z,1010.01
2018-10-12T04:05:40.160Z,1009.99
2018-10-12T04:06:06.287Z,1010.01
2018-10-12T04:06:32.425Z,1010.02
2018-10-12T04:06:58.567Z,1010
2018-10-12T04:07:24.697Z,1009.98
2018-10-12T04:07:50.850Z,1010.02
2018-10-12T04:08:16.985Z,1010.01
2018-10-12T04:08:43.124Z,1010.01
2018-10-12T04:09:09.275Z,1010.04
2018-10-12T04:09:35.432Z,1010
2018-10-12T04:10:01.597Z,1010.02
2018-10-12T04:10:27.727Z,1010.04
2018-10-12T04:10:53.855Z,1010.05
2018-10-12T04:11:20.020Z,1010.05
2018-10-12T04:11:46.172Z,1010.08
2018-10-12T04:12:12.333Z,1010.11
2018-10-12T04:12:38.544Z,1010.11
2018-10-12T04:13:04.593Z,1010.09
2018-10-12T04:13:30.739Z,1010.15
2018-10-12T04:13:56.878Z,1010.14
2018-10-12T04:14:23.042Z,1010.12
2018-10-12T04:14:49.216Z,1010.22
2018-10-12T04:15:15.364Z,1010.21
2018-10-12T04:15:41.547Z,1010.24
2018-10-12T04:16:07.728Z,1010.28
2018-10-12T04:16:33.863Z,1010.24
2018-10-12T04:17:00.029Z,1010.25
2018-10-12T04:17:26.166Z,1010.23
2018-10-12T04:17:52.298Z,1010.21
2018-10-12T04:18:18.468Z,1010.3
2018-10-12T04:18:44.604Z,1010.22
2018-10-12T04:19:10.760Z,1010.26
2018-10-12T04:19:36.940Z,1010.21
2018-10-12T04:20:03.094Z,1010.21
2018-10-12T04:20:29.240Z,1010.25
2018-10-12T04:20:55.374Z,1010.25
2018-10-12T04:21:21.508Z,1010.28
2018-10-12T04:21:47.668Z,1010.3
2018-10-12T04:22:13.800Z,1010.31
2018-10-12T04:22:39.935Z,1010.32
2018-10-12T04:23:06.100Z,1010.33
2018-10-12T04:23:32.257Z,1010.35
2018-10-12T04:23:58.391Z,1010.34
2018-10-12T04:24:24.531Z,1010.36
2018-10-12T04:24:50.691Z,1010.4
2018-10-12T04:25:16.855Z,1010.39
2018-10-12T04:25:42.985Z,1010.41
2018-10-12T04:26:09.125Z,1010.45
2018-10-12T04:26:35.286Z,1010.47
2018-10-12T04:27:01.415Z,1010.49
2018-10-12T04:27:27.572Z,1010.43
2018-10-12T04:27:53.705Z,1010.46
2018-10-12T04:28:19.842Z,1010.46
2018-10-12T04:28:46.007Z,1010.46
2018-10-12T04:29:12.143Z,1010.5
2018-10-12T04:29:38.314Z,1010.52
2018-10-12T04:30:04.448Z,1010.48
2018-10-12T04:30:30.579Z,1010.5
2018-10-12T04:30:56.714Z,1010.53
2018-10-12T04:31:22.880Z,1010.55
2018-10-12T04:31:49.011Z,1010.57
2018-10-12T04:32:15.149Z,1010.58
2018-10-12T04:32:41.278Z,1010.55
2018-10-12T04:33:07.419Z,1010.61
2018-10-12T04:33:33.550Z,1010.58
2018-10-12T04:33:59.727Z,1010.59
2018-10-12T04:34:25.862Z,1010.57
2018-10-12T04:34:51.994Z,1010.57
2018-10-12T04:35:18.129Z,1010.56
2018-10-12T04:35:44.286Z,1010.56
2018-10-12T04:36:10.421Z,1010.53
2018-10-12T04:36:36.577Z,1010.52
2018-10-12T04:37:02.720Z,1010.51
2018-10-12T04:37:28.905Z,1010.46
2018-10-12T04:37:55.039Z,1010.46
2018-10-12T04:38:21.193Z,1010.45
2018-10-12T04:38:47.360Z,1010.44
2018-10-12T04:39:13.492Z,1010.47
2018-10-12T04:39:39.625Z,1010.49
2018-10-12T04:40:05.758Z,1010.46
2018-10-12T04:40:31.896Z,1010.44
2018-10-12T04:40:58.052Z,1010.43
2018-10-12T04:41:24.181Z,1010.41
2018-10-12T04:41:50.393Z,1010.4
2018-10-12T04:42:16.526Z,1010.43
2018-10-12T04:42:42.714Z,1010.41
2018-10-12T04:43:08.896Z,1010.42
2018-10-12T04:43:35.062Z,1010.43
2018-10-12T04:44:01.211Z,1010.43
2018-10-12T04:44:27.363Z,1010.43
2018-10-12T04:44:53.497Z,1010.47
2018-10-12T04:45:19.650Z,1010.46
2018-10-12T04:45:45.823Z,1010.47
2018-10-12T04:46:11.953Z,1010.49
2018-10-12T04:46:38.087Z,1010.51
2018-10-12T04:47:04.252Z,1010.53
2018-10-12T04:47:30.413Z,1010.55
2018-10-12T04:47:56.540Z,1010.57
2018-10-12T04:48:22.677Z,1010.59
2018-10-12T04:48:48.840Z,1010.6
2018-10-12T04:49:14.973Z,1010.65
2018-10-12T04:49:41.131Z,1010.68
2018-10-12T04:50:07.279Z,1010.66
2018-10-12T04:50:33.443Z,1010.63
2018-10-12T04:50:59.574Z,1010.68
2018-10-12T04:51:25.707Z,1010.66
2018-10-12T04:51:51.869Z,1010.67
2018-10-12T04:52:18.029Z,1010.66
2018-10-12T04:52:44.162Z,1010.66
2018-10-12T04:53:10.320Z,1010.63
2018-10-12T04:53:36.476Z,1010.62
2018-10-12T04:54:02.612Z,1010.62
2018-10-12T04:54:28.773Z,1010.61
2018-10-12T04:54:54.973Z,1010.57
2018-10-12T04:55:21.111Z,1010.59
2018-10-12T04:55:47.244Z,1010.61
2018-10-12T04:56:13.402Z,1010.63
2018-10-12T04:56:39.564Z,1010.62
2018-10-12T04:57:05.702Z,1010.63
2018-10-12T04:57:31.872Z,1010.69
2018-10-12T04:57:57.990Z,1010.72
2018-10-12T04:58:24.120Z,1010.75
2018-10-12T04:58:50.259Z,1010.75
2018-10-12T04:59:16.400Z,1010.74
2018-10-12T04:59:42.526Z,1010.74
2018-10-12T05:00:08.690Z,1010.7
2018-10-12T05:00:34.869Z,1010.73
2018-10-12T05:01:01.051Z,1010.73
2018-10-12T05:01:27.188Z,1010.67
2018-10-12T05:01:53.325Z,1010.67
2018-10-12T05:02:19.458Z,1010.69
2018-10-12T05:02:45.613Z,1010.69
2018-10-12T05:03:11.748Z,1010.66
2018-10-12T05:03:37.926Z,1010.7
2018-10-12T05:04:04.088Z,1010.7
2018-10-12T05:04:30.223Z,1010.71
2018-10-12T05:04:56.369Z,1010.71
2018-10-12T05:05:22.495Z,1010.7
2018-10-12T05:05:48.655Z,1010.71
2018-10-12T05:06:14.786Z,1010.69
2018-10-12T05:06:40.943Z,1010.74
2018-10-12T05:07:07.107Z,1010.73
2018-10-12T05:07:33.257Z,1010.72
2018-10-12T05:07:59.396Z,1010.76
2018-10-12T05:08:25.554Z,1010.8
2018-10-12T05:08:51.718Z,1010.79
2018-10-12T05:09:17.848Z,1010.82
2018-10-12T05:09:43.981Z,1010.83
2018-10-12T05:10:10.117Z,1010.83
2018-10-12T05:10:36.253Z,1010.81
2018-10-12T05:11:02.411Z,1010.87
2018-10-12T05:11:28.569Z,1010.88
2018-10-12T05:11:54.751Z,1010.85
2018-10-12T05:12:20.880Z,1010.83
2018-10-12T05:12:47.015Z,1010.84
2018-10-12T05:13:13.154Z,1010.82
2018-10-12T05:13:39.286Z,1010.81
2018-10-12T05:14:05.435Z,1010.8
2018-10-12T05:14:31.570Z,1010.82
2018-10-12T05:14:57.727Z,1010.8
2018-10-12T05:15:23.908Z,1010.82
2018-10-12T05:15:50.040Z,1010.82
2018-10-12T05:16:16.197Z,1010.82
2018-10-12T05:16:42.335Z,1010.84
2018-10-12T05:17:08.473Z,1010.82
2018-10-12T05:17:34.622Z,1010.82
2018-10-12T05:18:00.806Z,1010.79